Time;durP1;ratioP1;P1;durP2;ratioP2;P2;SDS_P1;SDS_P2;PMS_P1;PMS_P2;Temp;Humidity;BMP_temperature;BMP_pressure;BME280_temperature;BME280_humidity;BME280_pressure;Samples;Min_cycle;Max_cycle;Signal;HPM_P1;HPM_P2
2023/01/03 00:02:25;;;;;;;2.28;1.90;;;;;;;18.96;57.26;97554.06;10332573;28;20418;-54
2023/01/03 00:07:44;;;;;;;2.30;2.10;;;;;;;18.95;57.24;97560.56;10332353;28;20081;-53
2023/01/03 00:13:04;;;;;;;2.45;2.25;;;;;;;18.95;57.25;97557.88;10332492;28;20065;-52
2023/01/03 00:18:25;;;;;;;2.30;2.10;;;;;;;18.94;57.31;97560.88;10330828;28;20438;-52
2023/01/03 00:23:45;;;;;;;2.17;1.83;;;;;;;18.94;57.38;97582.47;10315420;28;20539;-53
2023/01/03 00:29:04;;;;;;;2.50;2.22;;;;;;;18.92;57.32;97576.56;10328519;28;20050;-53
2023/01/03 00:34:26;;;;;;;1.90;1.80;;;;;;;18.91;57.29;97591.16;10318046;28;20059;-53
2023/01/03 00:39:45;;;;;;;2.40;2.03;;;;;;;18.90;57.28;97603.88;10330930;28;20431;-53
2023/01/03 00:45:05;;;;;;;2.42;1.80;;;;;;;18.90;57.34;97608.47;10306432;28;20061;-52
2023/01/03 00:50:25;;;;;;;2.13;1.85;;;;;;;18.89;57.30;97623.84;10323666;28;20055;-53
2023/01/03 00:55:44;;;;;;;2.28;1.90;;;;;;;18.88;57.30;97640.38;10321922;28;20065;-52
2023/01/03 01:01:15;;;;;;;2.30;2.10;;;;;;;18.87;57.19;97654.97;10339208;28;20108;-51
2023/01/03 01:06:42;;;;;;;2.58;2.10;;;;;;;18.86;57.22;97656.88;10339128;28;20490;-51
2023/01/03 01:12:02;;;;;;;2.35;2.00;;;;;;;18.86;57.28;97656.06;10336860;28;20054;-53
2023/01/03 01:17:22;;;;;;;2.60;2.13;;;;;;;18.84;57.26;97648.25;10335684;28;20058;-52
2023/01/03 01:22:41;;;;;;;1.95;1.85;;;;;;;18.84;57.20;97655.56;10336248;28;20112;-52
2023/01/03 01:28:01;;;;;;;2.17;1.98;;;;;;;18.82;57.31;97663.13;10327464;28;20065;-53
2023/01/03 01:33:20;;;;;;;2.03;1.80;;;;;;;18.81;57.27;97656.94;10348181;28;20050;-52
2023/01/03 01:38:39;;;;;;;2.22;2.00;;;;;;;18.80;57.10;97674.25;10300198;28;20062;-53
2023/01/03 01:49:37;;;;;;;2.47;1.98;;;;;;;18.79;57.14;97680.72;10337634;28;20101;-53
2023/01/03 01:54:57;;;;;;;1.98;1.70;;;;;;;18.77;57.09;97685.59;10315428;28;20521;-53
2023/01/03 02:00:18;;;;;;;1.92;1.75;;;;;;;18.76;57.20;97689.41;10325696;28;20105;-53
2023/01/03 02:05:41;;;;;;;1.83;1.52;;;;;;;18.75;57.25;97667.00;10332396;28;20058;-53
2023/01/03 02:11:10;;;;;;;1.67;1.58;;;;;;;18.74;57.13;97687.00;10321446;28;20062;-52
2023/01/03 02:16:52;;;;;;;1.60;1.50;;;;;;;18.73;57.29;97693.50;10334996;28;20428;-53
2023/01/03 02:22:22;;;;;;;2.00;1.70;;;;;;;18.73;57.13;97693.50;10335975;28;20062;-51
2023/01/03 02:27:47;;;;;;;2.20;2.00;;;;;;;18.72;57.14;97683.00;10287550;28;20058;-53
2023/01/03 02:33:13;;;;;;;1.63;1.52;;;;;;;18.71;57.25;97703.00;10334560;28;20058;-53
2023/01/03 02:38:41;;;;;;;1.73;1.55;;;;;;;18.70;57.12;97683.31;10335589;28;20128;-53
2023/01/03 02:44:12;;;;;;;1.77;1.60;;;;;;;18.69;57.20;97689.78;10319756;28;20058;-53
2023/01/03 02:49:52;;;;;;;1.80;1.70;;;;;;;18.68;57.10;97699.00;10337675;28;20503;-53
2023/01/03 02:55:23;;;;;;;1.52;1.40;;;;;;;18.68;57.06;97692.78;10307992;28;20078;-53
2023/01/03 03:00:47;;;;;;;1.45;1.35;;;;;;;18.66;57.10;97684.19;10317022;28;20077;-52
2023/01/03 03:06:32;;;;;;;1.92;1.50;;;;;;;18.66;57.19;97678.78;10311419;28;20054;-53
2023/01/03 03:17:30;;;;;;;2.08;1.40;;;;;;;18.64;56.92;97724.16;10293110;28;20511;-53
2023/01/03 03:28:37;;;;;;;1.60;1.50;;;;;;;18.62;57.05;97743.38;10292647;28;20508;-51
2023/01/03 03:34:28;;;;;;;1.77;1.45;;;;;;;18.62;56.96;97737.97;10278385;28;20063;-54
2023/01/03 03:45:44;;;;;;;1.35;1.25;;;;;;;18.60;57.16;97748.22;10292948;28;20059;-53
2023/01/03 03:51:13;;;;;;;1.40;1.30;;;;;;;18.58;57.08;97753.94;10292675;28;20054;-53
2023/01/03 03:56:33;;;;;;;1.45;1.30;;;;;;;18.58;57.03;97753.13;10292740;28;20058;-53
2023/01/03 04:01:56;;;;;;;1.52;1.42;;;;;;;18.57;57.04;97752.31;10277951;28;20055;-53
2023/01/03 04:07:16;;;;;;;1.63;1.52;;;;;;;18.55;57.16;97761.81;10304969;28;20534;-53
2023/01/03 04:12:35;;;;;;;1.80;1.50;;;;;;;18.54;57.15;97768.28;10294812;28;20069;-53
2023/01/03 04:17:55;;;;;;;1.50;1.40;;;;;;;18.54;57.04;97784.50;10345280;28;20058;-53
2023/01/03 04:23:14;;;;;;;1.60;1.38;;;;;;;18.53;57.15;97778.28;10331927;28;20058;-54
2023/01/03 04:28:34;;;;;;;1.63;1.50;;;;;;;18.52;56.99;97781.28;10335217;28;20062;-54
2023/01/03 04:33:53;;;;;;;1.30;1.20;;;;;;;18.51;57.06;97785.88;10340138;28;20050;-53
2023/01/03 04:39:13;;;;;;;1.20;1.10;;;;;;;18.50;57.01;97792.41;10352857;28;20057;-51
2023/01/03 04:44:32;;;;;;;1.40;1.30;;;;;;;18.50;57.08;97791.56;10328648;28;20062;-52
2023/01/03 04:49:51;;;;;;;1.50;1.40;;;;;;;18.48;57.07;97796.47;10332295;28;20054;-53
2023/01/03 04:55:12;;;;;;;2.15;1.25;;;;;;;18.47;56.94;97803.75;10347474;28;20042;-53
2023/01/03 05:00:32;;;;;;;1.40;1.30;;;;;;;18.46;56.97;97807.53;10339258;28;20118;-53
2023/01/03 05:05:51;;;;;;;1.20;1.10;;;;;;;18.45;57.09;97803.25;10352376;28;20050;-53
2023/01/03 05:11:10;;;;;;;1.27;1.17;;;;;;;18.45;57.11;97814.03;10339090;28;20060;-53
2023/01/03 05:16:30;;;;;;;1.65;1.30;;;;;;;18.45;57.07;97819.44;10337821;28;20069;-52
2023/01/03 05:27:28;;;;;;;1.27;1.17;;;;;;;18.43;56.98;97808.13;10328655;28;20061;-53
2023/01/03 05:32:47;;;;;;;1.90;1.30;;;;;;;18.44;56.85;97823.22;10337860;28;20294;-53
2023/01/03 05:38:06;;;;;;;1.20;1.10;;;;;;;18.46;56.96;97825.63;10347127;28;20058;-53
2023/01/03 05:43:26;;;;;;;1.20;1.10;;;;;;;18.45;57.00;97832.13;10329753;28;20063;-53
2023/01/03 05:48:45;;;;;;;1.25;1.15;;;;;;;18.46;56.94;97839.91;10323642;28;20066;-53
2023/01/03 05:54:04;;;;;;;1.00;1.00;;;;;;;18.48;57.00;97842.31;10335344;28;20062;-53
2023/01/03 05:59:25;;;;;;;1.00;1.00;;;;;;;18.49;56.83;97846.66;10335670;28;20069;-52
2023/01/03 06:04:45;;;;;;;1.63;1.33;;;;;;;18.49;56.88;97849.34;10336517;28;20059;-52
2023/01/03 06:10:05;;;;;;;1.20;1.02;;;;;;;18.51;56.79;97860.66;10333884;28;20054;-53
2023/01/03 06:15:25;;;;;;;1.13;1.02;;;;;;;18.52;56.87;97863.06;10330587;28;20070;-54
2023/01/03 06:20:44;;;;;;;1.23;1.13;;;;;;;18.54;56.68;97849.25;10334359;28;20058;-53
2023/01/03 06:26:03;;;;;;;1.33;1.13;;;;;;;18.54;56.91;97849.25;10327989;28;20066;-52
2023/01/03 06:31:23;;;;;;;1.17;1.08;;;;;;;18.56;56.63;97858.69;10347236;28;20106;-53
2023/01/03 06:36:42;;;;;;;1.20;1.10;;;;;;;18.57;56.70;97865.66;10320232;28;20059;-52
2023/01/03 06:42:38;;;;;;;1.48;1.38;;;;;;;18.60;56.68;97868.88;10342557;28;20050;-53
2023/01/03 06:53:23;;;;;;;0.93;0.93;;;;;;;18.63;56.65;97892.59;10331389;28;20070;-53
2023/01/03 06:58:42;;;;;;;1.10;1.00;;;;;;;18.64;56.59;97895.00;10333976;28;20058;-52
2023/01/03 07:04:01;;;;;;;1.10;1.00;;;;;;;18.67;56.51;97896.31;10332939;28;20062;-53
2023/01/03 07:09:21;;;;;;;1.20;1.10;;;;;;;18.67;56.50;97902.50;10307410;28;20117;-53
2023/01/03 07:14:41;;;;;;;3.92;1.10;;;;;;;18.70;56.67;97906.50;10328675;28;20058;-53
2023/01/03 07:20:00;;;;;;;1.33;1.10;;;;;;;18.72;56.72;97915.16;10334080;28;20051;-53
2023/01/03 07:25:20;;;;;;;1.02;0.90;;;;;;;18.75;56.94;97923.44;10333901;28;20415;-54
2023/01/03 07:30:42;;;;;;;1.08;1.00;;;;;;;18.76;56.90;97927.75;10333484;28;20058;-53
2023/01/03 07:36:03;;;;;;;1.30;1.20;;;;;;;18.80;56.93;97938.00;10334021;28;20062;-53
2023/01/03 07:43:35;;;;;;;0.80;0.80;;;;;;;18.79;56.24;97939.88;10333227;28;20057;-53
2023/01/03 07:47:03;;;;;;;1.23;1.10;;;;;;;18.82;56.81;97946.59;10321105;28;20066;-53
2023/01/03 07:52:22;;;;;;;0.90;0.90;;;;;;;18.84;56.77;97949.84;10332214;28;20498;-54
2023/01/03 07:57:42;;;;;;;0.90;0.90;;;;;;;18.87;56.84;97960.03;10332877;28;20066;-53
2023/01/03 08:03:01;;;;;;;1.10;1.00;;;;;;;18.89;56.95;97963.25;10331540;28;20051;-54
2023/01/03 08:08:20;;;;;;;1.05;1.00;;;;;;;18.92;57.02;97978.88;10332443;28;20054;-53
2023/01/03 08:13:40;;;;;;;0.88;0.88;;;;;;;18.94;57.19;97976.69;10317146;28;20510;-53
2023/01/03 08:19:00;;;;;;;1.10;1.00;;;;;;;18.95;57.08;97984.50;10308585;28;20055;-54
2023/01/03 08:24:19;;;;;;;1.05;0.90;;;;;;;18.98;56.91;97991.22;10307406;28;20426;-53
2023/01/03 08:29:38;;;;;;;0.85;0.80;;;;;;;19.00;57.10;97999.81;10307193;28;20491;-54
2023/01/03 08:34:58;;;;;;;2.10;1.00;;;;;;;19.01;57.03;98006.81;10315171;28;20055;-60
2023/01/03 08:40:18;;;;;;;1.52;0.90;;;;;;;19.03;57.08;98010.03;10293559;28;20047;-57
2023/01/03 08:45:38;;;;;;;1.10;0.85;;;;;;;19.06;57.33;98019.47;10296098;28;20404;-59
2023/01/03 08:50:57;;;;;;;2.75;1.10;;;;;;;19.09;57.45;98017.00;10309748;28;20058;-58
2023/01/03 08:56:20;;;;;;;0.98;0.93;;;;;;;19.11;57.67;98024.78;10304733;28;20050;-56
2023/01/03 09:01:40;;;;;;;1.50;1.00;;;;;;;19.13;57.92;98018.03;10319316;28;20379;-59
2023/01/03 09:06:59;;;;;;;1.35;1.10;;;;;;;19.16;58.01;98030.94;10309927;28;20061;-58
2023/01/03 09:12:18;;;;;;;1.80;1.10;;;;;;;19.18;57.93;98022.53;10315362;28;20047;-58
2023/01/03 09:17:42;;;;;;;1.55;0.90;;;;;;;19.21;57.95;98021.13;10351438;28;20050;-51
2023/01/03 09:23:02;;;;;;;1.20;1.00;;;;;;;19.22;57.82;98047.88;10325812;28;20054;-54
2023/01/03 09:28:21;;;;;;;1.25;1.15;;;;;;;19.20;53.84;98039.25;10337680;28;20054;-54
2023/01/03 09:33:41;;;;;;;1.70;1.10;;;;;;;19.19;55.09;98043.06;10336563;28;20061;-54
2023/01/03 09:39:00;;;;;;;2.47;1.05;;;;;;;19.21;55.40;98045.47;10334196;28;20062;-54
2023/01/03 09:44:20;;;;;;;3.78;1.15;;;;;;;19.23;55.41;98040.56;10336469;28;20058;-51
2023/01/03 09:49:39;;;;;;;2.45;1.50;;;;;;;19.25;55.30;98031.09;10337111;28;20050;-53
2023/01/03 10:06:49;;;;;;;1.35;1.25;;;;;;;18.48;41.65;98023.13;10335487;28;20065;-52
2023/01/03 10:12:26;;;;;;;1.67;1.30;;;;;;;18.00;40.90;98029.28;10310237;28;20077;-53
2023/01/03 10:17:48;;;;;;;1.30;1.20;;;;;;;17.77;41.10;98015.41;10335081;28;20521;-52
2023/01/03 10:23:09;;;;;;;2.10;1.27;;;;;;;17.68;40.81;98019.81;10348377;28;20062;-51
2023/01/03 10:28:36;;;;;;;1.73;1.10;;;;;;;18.07;45.06;98013.56;10331653;28;20057;-53
2023/01/03 10:33:55;;;;;;;2.00;1.40;;;;;;;18.41;46.25;98003.78;10317431;28;20407;-53
2023/01/03 10:39:27;;;;;;;1.65;1.33;;;;;;;18.61;47.35;98000.03;10325223;28;20050;-51
2023/01/03 10:45:00;;;;;;;2.42;1.30;;;;;;;18.73;47.33;97987.72;10334661;28;20062;-53
2023/01/03 10:50:22;;;;;;;2.17;1.40;;;;;;;18.82;47.62;97989.78;10348494;28;20105;-51
2023/01/03 10:55:46;;;;;;;2.75;1.30;;;;;;;18.87;47.86;97979.75;10323875;28;20061;-53
2023/01/03 11:01:18;;;;;;;3.53;1.30;;;;;;;18.91;48.10;97991.56;10332934;28;20042;-52
2023/01/03 11:06:43;;;;;;;1.73;1.20;;;;;;;18.95;48.73;97986.38;10334396;28;20132;-53
2023/01/03 11:12:14;;;;;;;2.70;1.50;;;;;;;19.00;48.83;97985.53;10334307;28;20058;-52
2023/01/03 11:17:35;;;;;;;2.22;1.20;;;;;;;19.01;49.16;97982.53;10328830;28;20545;-52
2023/01/03 11:23:02;;;;;;;1.90;1.45;;;;;;;19.04;49.24;97976.53;10311409;28;20050;-53
2023/01/03 11:28:40;;;;;;;4.32;1.35;;;;;;;19.07;49.96;97985.94;10346785;28;20042;-53
2023/01/03 11:34:10;;;;;;;2.40;1.40;;;;;;;19.08;50.54;97964.06;10333574;28;20058;-54
2023/01/03 11:39:59;;;;;;;1.40;1.10;;;;;;;19.11;50.97;97966.19;10317632;28;20097;-53
2023/01/03 11:45:24;;;;;;;1.88;1.30;;;;;;;19.15;51.14;97967.22;10326088;28;20126;-53
2023/01/03 11:50:54;;;;;;;2.50;1.30;;;;;;;19.17;51.37;97961.50;10333143;28;20058;-52
2023/01/03 11:56:24;;;;;;;1.38;1.27;;;;;;;19.17;51.58;97959.59;10331242;28;20054;-52
2023/01/03 12:02:25;;;;;;;2.35;1.58;;;;;;;19.19;51.74;97962.03;10317326;28;20062;-53
2023/01/03 12:07:52;;;;;;;1.70;1.30;;;;;;;19.21;51.82;97964.41;10321346;28;20058;-53
2023/01/03 12:13:36;;;;;;;1.75;1.23;;;;;;;19.22;52.04;97966.03;10310345;28;20121;-53
2023/01/03 12:19:06;;;;;;;1.73;1.10;;;;;;;19.21;48.16;97956.31;10319736;28;20062;-53
2023/01/03 12:24:36;;;;;;;2.47;1.23;;;;;;;19.21;50.57;97946.31;10332480;28;20423;-53
2023/01/03 12:30:21;;;;;;;1.65;1.15;;;;;;;19.24;50.81;97942.22;10331314;28;20058;-51
2023/01/03 12:35:50;;;;;;;1.73;1.02;;;;;;;19.25;51.53;97943.81;10305204;28;20451;-57
2023/01/03 12:41:24;;;;;;;1.58;1.10;;;;;;;19.27;52.08;97942.44;10294932;28;20053;-55
2023/01/03 12:46:47;;;;;;;1.42;0.98;;;;;;;19.30;52.31;97936.44;10308527;28;20050;-58
2023/01/03 12:52:11;;;;;;;1.40;1.10;;;;;;;19.32;52.70;97946.94;10300547;28;20454;-55
2023/01/03 12:57:34;;;;;;;1.70;0.90;;;;;;;19.35;52.79;97943.69;10304990;28;20062;-57
2023/01/03 13:03:39;;;;;;;1.10;1.00;;;;;;;19.35;52.79;97943.69;10326657;28;20113;-61
2023/01/03 13:09:03;;;;;;;1.98;1.08;;;;;;;19.37;53.31;97933.38;10277735;28;20118;-58
2023/01/03 13:14:24;;;;;;;2.13;1.08;;;;;;;-146.19;100.00;65364.44;10317062;28;20062;-60
2023/01/03 13:19:55;;;;;;;1.98;1.10;;;;;;;19.37;53.31;97933.38;10328502;28;20043;-61
2023/01/03 13:25:31;;;;;;;1.33;1.10;;;;;;;19.42;52.98;97938.69;10330606;28;20046;-51
2023/01/03 13:31:10;;;;;;;1.90;1.10;;;;;;;19.44;53.21;97947.28;10337091;28;20418;-49
2023/01/03 13:37:04;;;;;;;2.72;1.23;;;;;;;19.44;53.33;97947.28;10331795;28;20063;-49
2023/01/03 13:42:33;;;;;;;1.10;1.00;;;;;;;19.46;53.45;97955.91;10335784;28;20050;-52
2023/01/03 13:47:53;;;;;;;1.42;1.00;;;;;;;19.49;53.55;97949.91;10324325;28;20062;-51
2023/01/03 13:53:37;;;;;;;1.92;1.00;;;;;;;19.50;53.85;97954.25;10317929;28;20066;-53
2023/01/03 13:59:17;;;;;;;0.98;0.80;;;;;;;19.52;53.91;97949.34;10305436;28;20133;-51
2023/01/03 14:04:55;;;;;;;1.70;0.90;;;;;;;19.53;54.02;97958.25;10326222;28;20061;-53
2023/01/03 14:10:27;;;;;;;1.42;0.90;;;;;;;19.55;54.20;97954.13;10315910;28;20051;-54
2023/01/03 14:15:48;;;;;;;5.57;0.90;;;;;;;19.58;54.07;97960.06;10327126;28;20062;-54
2023/01/03 14:21:07;;;;;;;0.90;0.82;;;;;;;19.59;54.22;97959.75;10336139;28;20050;-54
2023/01/03 14:26:27;;;;;;;1.48;0.80;;;;;;;19.62;54.34;97969.16;10335191;28;20069;-53
2023/01/03 14:31:54;;;;;;;1.40;1.00;;;;;;;19.61;53.86;97968.38;10335752;28;20069;-54
2023/01/03 14:37:16;;;;;;;2.83;1.00;;;;;;;-146.19;100.00;65364.44;10348528;28;20046;-55
2023/01/03 14:42:44;;;;;;;0.90;0.90;;;;;;;19.61;53.86;97968.38;10332362;28;20384;-53
2023/01/03 14:48:04;;;;;;;2.42;0.93;;;;;;;19.64;54.02;97966.97;10334372;28;20066;-54
2023/01/03 14:53:24;;;;;;;1.73;0.90;;;;;;;19.65;54.13;97980.19;10347677;28;20454;-54
2023/01/03 14:58:46;;;;;;;3.47;1.00;;;;;;;19.65;54.15;97977.50;10299452;28;20070;-52
2023/01/03 15:04:06;;;;;;;2.70;0.70;;;;;;;19.67;54.29;97974.50;10334309;28;20498;-56
2023/01/03 15:09:26;;;;;;;1.23;0.88;;;;;;;19.69;54.28;97975.00;10334504;28;20051;-53
2023/01/03 15:14:45;;;;;;;3.03;0.80;;;;;;;19.68;54.42;97976.91;10328036;28;20062;-55
2023/01/03 15:20:06;;;;;;;2.58;0.88;;;;;;;19.69;54.45;97986.63;10333608;28;20505;-55
2023/01/03 15:25:32;;;;;;;2.25;0.80;;;;;;;19.71;54.54;97992.56;10317366;28;20055;-55
2023/01/03 15:30:54;;;;;;;1.30;0.80;;;;;;;19.69;52.55;97986.63;10311758;28;20050;-53
2023/01/03 15:36:14;;;;;;;1.48;0.80;;;;;;;19.70;53.43;97982.03;10346520;28;20565;-50
2023/01/03 15:47:25;;;;;;;2.08;1.05;;;;;;;19.74;53.88;97989.28;10345854;28;20546;-48
2023/01/03 15:52:45;;;;;;;5.05;1.05;;;;;;;19.75;54.04;97998.19;10314053;28;20495;-51
2023/01/03 15:58:05;;;;;;;1.27;0.90;;;;;;;19.76;54.11;98010.63;10300130;28;20058;-51
2023/01/03 16:03:29;;;;;;;2.13;0.80;;;;;;;19.76;54.21;98005.22;10313388;28;20054;-50
2023/01/03 16:08:49;;;;;;;1.40;0.90;;;;;;;19.77;54.19;98024.94;10295007;28;20055;-51
2023/01/03 16:14:14;;;;;;;1.90;1.10;;;;;;;19.78;54.29;98027.34;10301380;28;20046;-55
2023/01/03 16:19:34;;;;;;;1.90;0.98;;;;;;;19.79;54.60;98030.84;10293065;28;20519;-53
2023/01/03 16:24:53;;;;;;;1.13;0.85;;;;;;;19.79;54.70;98039.75;10294866;28;20059;-54
2023/01/03 16:30:15;;;;;;;1.65;0.80;;;;;;;19.81;54.82;98042.16;10295713;28;20058;-54
2023/01/03 16:35:34;;;;;;;0.80;0.75;;;;;;;19.81;54.85;98044.88;10292873;28;20400;-54
2023/01/03 16:40:55;;;;;;;1.20;0.98;;;;;;;19.81;54.90;98045.66;10304114;28;20058;-54
2023/01/03 16:46:18;;;;;;;2.40;0.90;;;;;;;19.81;54.92;98048.38;10343150;28;20050;-53
2023/01/03 16:51:40;;;;;;;1.20;0.95;;;;;;;19.82;54.92;98039.19;10330668;28;20574;-54
2023/01/03 16:56:59;;;;;;;2.95;1.00;;;;;;;19.81;55.13;98048.38;10331471;28;20062;-54
2023/01/03 17:02:18;;;;;;;0.75;0.73;;;;;;;19.81;55.34;98056.47;10331326;28;20054;-54
2023/01/03 17:07:39;;;;;;;3.20;1.17;;;;;;;19.83;56.68;98048.88;10331373;28;20050;-54
2023/01/03 17:13:00;;;;;;;2.58;1.50;;;;;;;19.84;57.73;98045.09;10311037;28;20043;-49
2023/01/03 17:18:22;;;;;;;3.85;1.80;;;;;;;19.86;58.19;98056.41;10338234;28;20062;-54
2023/01/03 17:23:42;;;;;;;1.70;1.30;;;;;;;-146.19;100.00;65364.44;10316253;28;20050;-56
2023/01/03 17:29:03;;;;;;;2.58;1.40;;;;;;;-146.19;100.00;65364.44;10331042;28;20065;-56
2023/01/03 17:34:25;;;;;;;2.35;1.08;;;;;;;-146.19;100.00;65364.44;10331794;28;20066;-49
2023/01/03 17:39:51;;;;;;;1.50;0.90;;;;;;;-146.19;100.00;65364.44;10350698;28;20054;-48
2023/01/03 17:50:55;;;;;;;4.88;1.05;;;;;;;-146.19;100.00;65364.44;10311618;28;20058;-53
2023/01/03 17:56:17;;;;;;;2.83;1.20;;;;;;;-146.19;100.00;65364.44;10308806;28;20051;-62
2023/01/03 18:01:36;;;;;;;3.20;1.23;;;;;;;-146.19;100.00;65364.44;10315426;28;20047;-66
2023/01/03 18:06:58;;;;;;;5.45;1.30;;;;;;;-146.19;100.00;65364.44;10302462;28;20059;-78
2023/01/03 18:12:20;;;;;;;1.70;0.90;;;;;;;-146.19;100.00;65364.44;10315091;28;20062;-64
2023/01/03 18:17:39;;;;;;;3.03;1.00;;;;;;;-146.19;100.00;65364.44;10314421;28;20101;-59
2023/01/03 18:22:59;;;;;;;1.67;1.15;;;;;;;-146.19;100.00;65364.44;10349112;28;20062;-58
2023/01/03 18:28:22;;;;;;;3.22;1.02;;;;;;;-146.19;100.00;65364.44;10334550;28;20503;-59
2023/01/03 18:33:42;;;;;;;1.38;1.00;;;;;;;-146.19;100.00;65364.44;10332425;28;20088;-59
2023/01/03 18:39:05;;;;;;;1.83;0.95;;;;;;;-146.19;100.00;65364.44;10336026;28;20066;-58
2023/01/03 18:44:26;;;;;;;2.00;1.13;;;;;;;-146.19;100.00;65364.44;10335592;28;20081;-59
2023/01/03 18:49:45;;;;;;;4.40;1.23;;;;;;;-146.19;100.00;65364.44;10322532;28;20051;-59
2023/01/03 18:55:07;;;;;;;2.15;1.10;;;;;;;-146.19;100.00;65364.44;10334502;28;20066;-58
2023/01/03 19:00:26;;;;;;;1.05;0.95;;;;;;;-146.19;100.00;65364.44;10319904;28;20047;-48
2023/01/03 19:05:46;;;;;;;2.30;1.00;;;;;;;-146.19;100.00;65364.44;10347929;28;20046;-52
2023/01/03 19:11:10;;;;;;;1.55;1.10;;;;;;;-146.19;100.00;65364.44;10333727;28;20074;-49
2023/01/03 19:16:32;;;;;;;2.40;1.02;;;;;;;-146.19;100.00;65364.44;10318817;28;20103;-51
2023/01/03 19:21:52;;;;;;;1.05;0.80;;;;;;;-146.19;100.00;65364.44;10347067;28;20058;-52
2023/01/03 19:27:11;;;;;;;1.38;1.02;;;;;;;-146.19;100.00;65364.44;10331943;28;20046;-51
2023/01/03 19:32:32;;;;;;;1.48;0.95;;;;;;;19.76;58.29;98107.97;10333817;28;20062;-58
2023/01/03 19:37:52;;;;;;;1.08;0.82;;;;;;;19.74;58.42;98107.44;10333558;28;20054;-54
2023/01/03 19:43:20;;;;;;;2.20;1.10;;;;;;;19.74;58.28;98123.66;10332220;28;20061;-55
2023/01/03 19:48:40;;;;;;;1.50;0.90;;;;;;;19.73;58.38;98117.44;10331522;28;20066;-54
2023/01/03 19:54:00;;;;;;;2.22;1.00;;;;;;;19.73;58.47;98127.47;10324274;28;20495;-54
2023/01/03 19:59:33;;;;;;;1.10;0.98;;;;;;;19.72;58.25;98123.16;10331953;28;20507;-51
2023/01/03 20:04:53;;;;;;;1.55;0.80;;;;;;;-146.19;100.00;65364.44;10331864;28;20447;-52
2023/01/03 20:10:17;;;;;;;1.00;0.90;;;;;;;-146.19;100.00;65364.44;10331196;28;20046;-52
2023/01/03 20:15:40;;;;;;;2.60;1.00;;;;;;;-146.19;100.00;65364.44;10329190;28;20050;-55
2023/01/03 20:21:04;;;;;;;2.50;1.10;;;;;;;-146.19;100.00;65364.44;10329423;28;20470;-52
2023/01/03 20:26:26;;;;;;;1.17;0.90;;;;;;;-146.19;100.00;65364.44;10345240;28;20055;-55
2023/01/03 20:31:45;;;;;;;1.27;1.00;;;;;;;-146.19;100.00;65364.44;10345038;28;20050;-54
2023/01/03 20:37:11;;;;;;;1.48;1.00;;;;;;;-146.19;100.00;65364.44;10345077;28;20042;-55
2023/01/03 20:42:31;;;;;;;1.20;1.02;;;;;;;-146.19;100.00;65364.44;10316878;28;20061;-55
2023/01/03 20:47:52;;;;;;;1.10;1.00;;;;;;;-146.19;100.00;65364.44;10331552;28;20058;-54
2023/01/03 20:53:27;;;;;;;2.40;1.10;;;;;;;-146.19;100.00;65364.44;10331196;28;20054;-54
2023/01/03 20:58:46;;;;;;;1.30;1.00;;;;;;;-146.19;100.00;65364.44;10330678;28;20418;-51
2023/01/03 21:04:06;;;;;;;2.05;1.10;;;;;;;-146.19;100.00;65364.44;10331521;28;20050;-48
2023/01/03 21:09:25;;;;;;;1.50;1.05;;;;;;;-146.19;100.00;65364.44;10332291;28;20422;-49
2023/01/03 21:14:48;;;;;;;3.92;1.00;;;;;;;-146.19;100.00;65364.44;10332487;28;20062;-55
2023/01/03 21:20:20;;;;;;;1.77;1.00;;;;;;;-146.19;100.00;65364.44;10351914;28;20109;-52
2023/01/03 21:25:39;;;;;;;1.60;0.98;;;;;;;-146.19;100.00;65364.44;10338550;28;20085;-55
2023/01/03 21:30:59;;;;;;;1.23;1.00;;;;;;;-146.19;100.00;65364.44;10338711;28;20054;-53
2023/01/03 21:36:24;;;;;;;1.30;1.05;;;;;;;-146.19;100.00;65364.44;10338082;28;20058;-54
2023/01/03 21:47:21;;;;;;;1.77;1.20;;;;;;;19.51;58.69;98131.50;10350625;28;20058;-52
2023/01/03 21:52:41;;;;;;;2.88;1.00;;;;;;;19.51;59.67;98125.31;10335874;28;20854;-52
2023/01/03 21:58:00;;;;;;;1.75;1.10;;;;;;;19.49;59.15;98122.91;10336309;28;20051;-51
2023/01/03 22:08:59;;;;;;;1.35;1.10;;;;;;;19.46;58.93;98123.47;10336274;28;20063;-51
2023/01/03 22:14:19;;;;;;;1.38;1.10;;;;;;;19.44;58.63;98122.16;10324295;28;20073;-52
2023/01/03 22:19:38;;;;;;;1.23;1.10;;;;;;;19.42;58.83;98118.94;10328531;28;20055;-51
2023/01/03 22:24:57;;;;;;;1.85;1.10;;;;;;;19.42;58.73;98110.84;10348550;28;20054;-52
2023/01/03 22:30:18;;;;;;;2.60;1.30;;;;;;;19.40;58.61;98116.53;10336110;28;20085;-52
2023/01/03 22:35:38;;;;;;;1.70;1.13;;;;;;;19.39;58.50;98122.25;10349055;28;20058;-52
2023/01/03 22:40:57;;;;;;;2.17;1.42;;;;;;;19.38;58.59;98121.41;10335691;28;20047;-52
2023/01/03 22:46:16;;;;;;;3.35;1.50;;;;;;;19.36;58.42;98118.19;10335615;28;20058;-51
2023/01/03 22:51:36;;;;;;;2.20;1.30;;;;;;;19.35;58.48;98116.59;10335088;28;20078;-52
2023/01/03 22:56:55;;;;;;;2.42;1.30;;;;;;;19.34;58.76;98107.69;10328856;28;20093;-51
2023/01/03 23:02:15;;;;;;;3.13;1.60;;;;;;;19.31;58.82;98108.28;10335161;28;20062;-52
2023/01/03 23:07:34;;;;;;;2.63;1.42;;;;;;;19.30;58.81;98098.53;10334980;28;20059;-51
2023/01/03 23:12:56;;;;;;;1.65;1.17;;;;;;;19.30;58.63;98103.16;10318565;28;20050;-51
2023/01/03 23:18:16;;;;;;;1.92;1.40;;;;;;;19.29;58.71;98096.16;10330086;28;20054;-51
2023/01/03 23:23:35;;;;;;;1.40;1.30;;;;;;;19.28;58.81;98089.13;10333882;28;20058;-51
2023/01/03 23:28:55;;;;;;;1.95;1.50;;;;;;;19.26;58.76;98085.91;10334188;28;20050;-51
2023/01/03 23:34:15;;;;;;;1.60;1.30;;;;;;;19.25;58.82;98082.44;10333413;28;20450;-52
2023/01/03 23:39:35;;;;;;;1.92;1.10;;;;;;;19.24;58.77;98088.91;10333589;28;20065;-52
2023/01/03 23:44:54;;;;;;;1.40;1.20;;;;;;;19.22;58.70;98082.19;10324348;28;20419;-51
2023/01/03 23:50:14;;;;;;;1.85;1.30;;;;;;;19.20;58.76;98079.78;10333359;28;20383;-52
2023/01/03 23:55:34;;;;;;;2.28;1.15;;;;;;;19.20;58.53;98073.56;10345741;28;20419;-51
